createdAt,value
2018-10-21T00:01:59.653Z,2.90
2018-10-21T00:04:27.052Z,2.73
2018-10-21T00:06:54.522Z,2.40
2018-10-21T00:09:22.256Z,2.27
2018-10-21T00:11:49.710Z,2.70
2018-10-21T00:14:17.081Z,2.60
2018-10-21T00:16:44.478Z,2.50
2018-10-21T00:19:11.932Z,3.00
2018-10-21T00:21:39.313Z,3.00
2018-10-21T00:24:06.754Z,3.00
2018-10-21T00:26:34.262Z,2.60
2018-10-21T00:29:01.657Z,3.00
2018-10-21T00:31:29.038Z,3.00
2018-10-21T00:33:56.472Z,2.70
2018-10-21T00:36:23.888Z,2.50
2018-10-21T00:38:51.281Z,2.50
2018-10-21T00:41:18.694Z,2.43
2018-10-21T00:43:46.137Z,2.57
2018-10-21T00:46:13.536Z,3.03
2018-10-21T00:48:40.936Z,3.23
2018-10-21T00:51:08.328Z,2.40
2018-10-21T00:53:35.748Z,2.20
2018-10-21T00:56:03.153Z,2.50
2018-10-21T00:58:30.577Z,2.43
2018-10-21T01:00:58.012Z,2.63
2018-10-21T01:03:25.422Z,3.07
2018-10-21T01:05:52.846Z,2.90
2018-10-21T01:08:20.246Z,3.20
2018-10-21T01:10:47.698Z,3.10
2018-10-21T01:13:15.072Z,2.73
2018-10-21T01:15:42.525Z,2.93
2018-10-21T01:18:09.917Z,2.50
2018-10-21T01:20:37.292Z,2.70
2018-10-21T01:23:04.861Z,2.50
2018-10-21T01:25:32.358Z,2.77
2018-10-21T01:27:59.761Z,2.87
2018-10-21T01:30:27.158Z,2.87
2018-10-21T01:32:54.600Z,3.00
2018-10-21T01:35:22.004Z,3.00
2018-10-21T01:37:49.439Z,2.60
2018-10-21T01:40:33.158Z,2.27
2018-10-21T01:43:00.857Z,2.87
2018-10-21T01:45:28.259Z,2.80
2018-10-21T01:47:57.100Z,2.53
2018-10-21T01:50:24.974Z,2.47
2018-10-21T01:52:52.773Z,2.40
2018-10-21T01:55:20.286Z,2.47
2018-10-21T01:57:47.714Z,2.67
2018-10-21T02:00:15.143Z,2.43
2018-10-21T02:02:42.537Z,2.50
2018-10-21T02:05:09.976Z,2.60
2018-10-21T02:07:37.374Z,2.60
2018-10-21T02:10:05.538Z,2.57
2018-10-21T02:12:32.961Z,2.50
2018-10-21T02:15:00.384Z,3.40
2018-10-21T02:17:27.769Z,3.23
2018-10-21T02:19:55.177Z,2.83
2018-10-21T02:22:22.574Z,2.87
2018-10-21T02:24:50.007Z,2.83
2018-10-21T02:27:17.516Z,3.10
2018-10-21T02:29:44.854Z,6.03
2018-10-21T02:32:12.295Z,2.63
2018-10-21T02:34:39.693Z,2.73
2018-10-21T02:37:07.102Z,3.50
2018-10-21T02:39:34.825Z,2.60
2018-10-21T02:42:03.225Z,2.90
2018-10-21T02:50:41.029Z,2.80
2018-10-21T02:53:10.947Z,2.80
2018-10-21T02:55:39.636Z,2.67
2018-10-21T02:58:08.174Z,2.77
2018-10-21T03:00:39.788Z,2.90
2018-10-21T03:03:15.468Z,2.73
2018-10-21T03:05:45.639Z,2.40
2018-10-21T03:08:37.013Z,2.33
2018-10-21T03:11:06.324Z,2.40
2018-10-21T03:14:02.171Z,3.20
2018-10-21T03:29:38.109Z,2.63
2018-10-21T03:47:02.005Z,2.80
2018-10-21T03:49:31.104Z,2.60
2018-10-21T03:52:01.267Z,3.00
2018-10-21T03:54:30.091Z,3.10
2018-10-21T04:02:05.336Z,3.60
2018-10-21T04:04:40.947Z,3.20
2018-10-21T04:28:08.364Z,3.37
2018-10-21T04:30:39.375Z,3.40
2018-10-21T04:40:14.163Z,2.83
2018-10-21T04:42:52.599Z,3.60
2018-10-21T04:45:26.054Z,3.37
2018-10-21T04:47:54.788Z,3.10
2018-10-21T04:50:27.459Z,2.93
2018-10-21T04:52:56.353Z,3.73
2018-10-21T04:55:25.534Z,3.40
2018-10-21T04:57:56.354Z,3.20
2018-10-21T05:00:26.313Z,2.97
2018-10-21T05:02:56.537Z,3.23
2018-10-21T05:05:27.863Z,3.17
2018-10-21T05:08:31.062Z,3.20
2018-10-21T05:11:00.879Z,3.57
2018-10-21T05:13:30.799Z,3.73
2018-10-21T05:16:08.888Z,4.17
2018-10-21T05:18:42.804Z,4.60
2018-10-21T05:21:14.466Z,4.70
2018-10-21T05:23:47.159Z,5.30
2018-10-21T05:26:17.640Z,3.63
2018-10-21T05:31:59.667Z,4.57
2018-10-21T05:34:33.281Z,3.43
2018-10-21T05:37:06.469Z,3.43
2018-10-21T05:39:37.286Z,3.83
2018-10-21T05:42:47.857Z,3.67
2018-10-21T05:45:29.222Z,3.93
2018-10-21T05:47:58.618Z,5.40
2018-10-21T06:07:12.215Z,2.80
2018-10-21T06:09:40.313Z,2.87
2018-10-21T06:12:07.941Z,2.83
2018-10-21T06:14:36.054Z,3.60
2018-10-21T06:17:10.634Z,3.20
2018-10-21T06:19:39.093Z,3.57
2018-10-21T06:22:06.691Z,3.03
2018-10-21T06:24:34.218Z,3.07
2018-10-21T06:27:01.680Z,3.17
2018-10-21T06:29:29.090Z,3.00
2018-10-21T06:31:56.478Z,3.07
2018-10-21T06:34:24.039Z,3.10
2018-10-21T06:36:51.581Z,2.77
2018-10-21T06:39:18.947Z,3.03
2018-10-21T06:41:46.342Z,3.43
2018-10-21T06:44:13.794Z,3.40
2018-10-21T06:46:41.244Z,3.00
2018-10-21T06:49:08.769Z,2.83
2018-10-21T06:51:43.499Z,2.80
2018-10-21T06:54:11.150Z,2.93
2018-10-21T06:56:40.368Z,3.40
2018-10-21T06:59:31.345Z,3.00
2018-10-21T07:02:01.830Z,3.17
2018-10-21T07:04:31.951Z,3.40
2018-10-21T07:07:00.296Z,4.17
2018-10-21T07:09:28.667Z,3.83
2018-10-21T07:16:01.313Z,3.50
2018-10-21T07:18:30.872Z,3.77
2018-10-21T07:20:58.561Z,4.30
2018-10-21T07:23:31.489Z,4.90
2018-10-21T07:26:30.905Z,4.60
2018-10-21T07:29:00.124Z,4.97
2018-10-21T07:31:28.885Z,4.00
2018-10-21T07:33:58.526Z,3.50
2018-10-21T07:36:27.446Z,4.60
2018-10-21T07:38:55.905Z,3.70
2018-10-21T07:41:24.702Z,3.80
2018-10-21T07:43:53.284Z,4.17
2018-10-21T07:46:21.407Z,4.20
2018-10-21T07:48:53.049Z,4.17
2018-10-21T07:51:21.534Z,3.80
2018-10-21T07:53:50.192Z,3.57
2018-10-21T07:56:19.770Z,3.30
2018-10-21T07:58:54.531Z,3.80
2018-10-21T08:01:24.363Z,3.30
2018-10-21T08:06:24.041Z,3.27
2018-10-21T08:21:00.467Z,4.10
2018-10-21T08:49:32.947Z,3.13
2018-10-21T08:52:00.395Z,2.90
2018-10-21T08:54:27.786Z,3.23
2018-10-21T08:56:55.288Z,3.20
2018-10-21T08:59:22.673Z,3.30
2018-10-21T09:01:50.124Z,2.90
2018-10-21T09:04:17.647Z,3.03
2018-10-21T09:06:45.006Z,3.53
2018-10-21T09:09:12.433Z,3.30
2018-10-21T09:11:40.169Z,3.53
2018-10-21T09:14:07.596Z,3.30
2018-10-21T09:16:35.159Z,2.80
2018-10-21T09:19:02.599Z,3.60
2018-10-21T09:21:29.957Z,3.67
2018-10-21T09:23:57.365Z,3.97
2018-10-21T09:26:24.810Z,4.00
2018-10-21T09:28:52.248Z,4.40
2018-10-21T09:31:19.648Z,4.17
2018-10-21T09:33:47.060Z,4.63
2018-10-21T09:36:14.490Z,5.00
2018-10-21T09:38:42.036Z,4.20
2018-10-21T09:41:09.530Z,4.50
2018-10-21T09:43:37.069Z,4.47
2018-10-21T09:46:04.610Z,4.90
2018-10-21T09:48:31.966Z,3.77
2018-10-21T09:51:00.245Z,4.77
2018-10-21T09:53:27.631Z,4.60
2018-10-21T09:55:55.066Z,4.60
2018-10-21T09:58:22.470Z,4.30
2018-10-21T10:00:55.711Z,3.83
2018-10-21T10:03:23.090Z,4.57
2018-10-21T10:05:50.591Z,4.20
2018-10-21T10:08:18.001Z,4.10
2018-10-21T10:10:45.409Z,4.60
2018-10-21T10:13:12.921Z,3.87
2018-10-21T10:15:40.314Z,4.07
2018-10-21T10:18:07.766Z,4.33
2018-10-21T10:20:35.161Z,3.97
2018-10-21T10:23:02.626Z,3.90
2018-10-21T10:25:30.078Z,4.17
2018-10-21T10:27:57.588Z,3.60
2018-10-21T10:30:24.960Z,4.20
2018-10-21T10:32:52.372Z,3.70
2018-10-21T10:35:19.916Z,3.70
2018-10-21T10:37:47.308Z,3.83
2018-10-21T10:40:14.801Z,3.73
2018-10-21T10:42:42.501Z,3.67
2018-10-21T10:45:09.943Z,3.07
2018-10-21T10:47:37.936Z,3.10
2018-10-21T10:50:07.161Z,3.80
2018-10-21T10:52:34.687Z,3.20
2018-10-21T10:55:02.221Z,3.53
2018-10-21T10:57:29.869Z,2.80
2018-10-21T10:59:57.647Z,3.30
2018-10-21T11:02:25.293Z,3.17
2018-10-21T11:04:52.675Z,3.03
2018-10-21T11:07:20.204Z,3.10
2018-10-21T11:09:47.642Z,2.90
2018-10-21T11:12:15.060Z,2.80
2018-10-21T11:14:42.494Z,2.77
2018-10-21T11:17:10.089Z,3.00
2018-10-21T11:19:37.506Z,2.70
2018-10-21T11:22:05.267Z,2.33
2018-10-21T11:24:35.880Z,2.63
2018-10-21T11:27:03.321Z,2.40
2018-10-21T11:29:30.741Z,2.43
2018-10-21T11:31:58.176Z,2.40
2018-10-21T11:34:25.599Z,2.00
2018-10-21T11:36:53.094Z,2.20
2018-10-21T11:39:20.528Z,2.10
2018-10-21T11:41:47.934Z,2.03
2018-10-21T11:44:15.292Z,2.00
2018-10-21T11:46:42.715Z,2.20
2018-10-21T11:49:10.202Z,1.70
2018-10-21T11:51:37.562Z,1.90
2018-10-21T11:54:04.994Z,2.40
2018-10-21T11:56:36.766Z,2.30
2018-10-21T11:59:05.261Z,2.30
2018-10-21T12:01:32.734Z,2.30
2018-10-21T12:04:00.208Z,2.60
2018-10-21T12:06:33.917Z,2.33
2018-10-21T12:09:08.923Z,2.40
2018-10-21T12:11:42.372Z,2.50
2018-10-21T12:14:15.996Z,2.17
2018-10-21T12:16:49.626Z,2.47
2018-10-21T12:19:23.227Z,2.60
2018-10-21T12:21:56.795Z,2.70
2018-10-21T12:24:30.309Z,2.87
2018-10-21T12:27:03.921Z,3.10
2018-10-21T12:29:37.573Z,3.33
2018-10-21T12:32:11.645Z,3.20
2018-10-21T12:34:45.153Z,3.60
2018-10-21T12:37:18.608Z,4.00
2018-10-21T12:39:52.248Z,3.60
2018-10-21T12:42:25.894Z,3.70
2018-10-21T12:44:59.429Z,3.47
2018-10-21T12:47:32.938Z,3.60
2018-10-21T12:50:07.037Z,3.73
2018-10-21T12:52:40.469Z,3.73
2018-10-21T12:55:14.094Z,4.27
2018-10-21T12:57:47.666Z,3.53
2018-10-21T13:00:21.252Z,3.37
2018-10-21T13:02:54.764Z,3.30
2018-10-21T13:05:28.408Z,3.07
2018-10-21T13:08:01.943Z,3.23
2018-10-21T13:10:35.534Z,3.00
2018-10-21T13:13:09.019Z,2.90
2018-10-21T13:15:42.480Z,3.10
2018-10-21T13:18:16.194Z,3.43
2018-10-21T13:20:49.760Z,2.80
2018-10-21T13:23:23.285Z,3.10
2018-10-21T13:25:56.941Z,3.37
2018-10-21T13:28:30.542Z,3.03
2018-10-21T13:31:04.549Z,2.93
2018-10-21T13:33:37.971Z,3.03
2018-10-21T13:36:11.646Z,3.10
2018-10-21T13:38:45.037Z,2.87
2018-10-21T13:41:18.657Z,2.50
2018-10-21T13:43:52.257Z,2.97
2018-10-21T13:46:25.977Z,3.00
2018-10-21T13:48:59.484Z,2.63
2018-10-21T13:51:33.253Z,2.40
2018-10-21T13:54:06.671Z,3.03
2018-10-21T13:56:40.325Z,2.93
2018-10-21T13:59:14.051Z,2.60
2018-10-21T14:01:47.581Z,2.30
2018-10-21T14:04:21.249Z,2.80
2018-10-21T14:06:55.078Z,2.23
2018-10-21T14:09:28.596Z,2.47
2018-10-21T14:12:02.247Z,2.23
2018-10-21T14:14:35.815Z,2.27
2018-10-21T14:17:09.340Z,2.30
2018-10-21T14:19:42.909Z,2.67
2018-10-21T14:22:16.596Z,2.10
2018-10-21T14:24:50.005Z,2.37
2018-10-21T14:27:23.492Z,2.20
2018-10-21T14:29:57.046Z,2.40
2018-10-21T14:32:30.625Z,1.80
2018-10-21T14:35:06.015Z,1.90
2018-10-21T14:37:39.895Z,2.10
2018-10-21T14:40:13.648Z,2.00
2018-10-21T14:42:47.208Z,2.20
2018-10-21T14:45:20.823Z,2.33
2018-10-21T14:47:54.236Z,2.07
2018-10-21T14:50:27.881Z,2.10
2018-10-21T14:53:01.493Z,2.20
2018-10-21T14:55:35.086Z,2.30
2018-10-21T14:58:08.696Z,2.47
2018-10-21T15:00:42.409Z,2.87
2018-10-21T15:03:15.990Z,2.30
2018-10-21T15:05:49.675Z,2.50
2018-10-21T15:08:23.275Z,2.27
2018-10-21T15:10:56.785Z,2.43
2018-10-21T15:13:30.421Z,2.60
2018-10-21T15:16:04.233Z,2.60
2018-10-21T15:18:37.845Z,2.53
2018-10-21T15:21:11.464Z,2.40
2018-10-21T15:23:45.130Z,2.30
2018-10-21T15:26:18.879Z,2.43
2018-10-21T15:28:52.342Z,2.17
2018-10-21T15:31:26.001Z,2.43
2018-10-21T15:33:59.573Z,2.40
2018-10-21T15:36:33.172Z,2.57
2018-10-21T15:39:08.326Z,2.73
2018-10-21T15:41:41.905Z,2.50
2018-10-21T15:44:15.572Z,2.70
2018-10-21T15:46:49.031Z,2.60
2018-10-21T15:49:22.682Z,2.53
2018-10-21T15:51:56.287Z,2.40
2018-10-21T15:54:30.660Z,2.90
2018-10-21T15:57:04.480Z,2.23
2018-10-21T15:59:38.248Z,2.57
2018-10-21T16:02:11.838Z,2.83
2018-10-21T16:04:45.320Z,2.97
2018-10-21T16:07:18.816Z,3.20
2018-10-21T16:09:52.749Z,4.90
2018-10-21T16:12:26.465Z,19.80
2018-10-21T16:15:00.002Z,3.73
2018-10-21T16:17:33.817Z,2.87
2018-10-21T16:20:07.571Z,3.20
2018-10-21T16:22:42.194Z,3.17
2018-10-21T16:25:15.887Z,3.70
2018-10-21T16:27:49.363Z,3.50
2018-10-21T16:30:23.096Z,3.10
2018-10-21T16:32:56.886Z,3.10
2018-10-21T16:35:30.365Z,3.17
2018-10-21T16:38:04.024Z,3.97
2018-10-21T16:40:37.522Z,3.50
2018-10-21T16:43:11.134Z,3.80
2018-10-21T16:45:44.673Z,3.77
2018-10-21T16:48:18.266Z,3.90
2018-10-21T16:50:51.768Z,3.77
2018-10-21T16:53:25.347Z,3.63
2018-10-21T16:55:58.957Z,3.90
2018-10-21T16:58:32.549Z,4.23
2018-10-21T17:01:06.319Z,4.80
2018-10-21T17:03:39.833Z,5.40
2018-10-21T17:06:13.284Z,5.17
2018-10-21T17:08:46.902Z,4.80
2018-10-21T17:11:20.653Z,4.93
2018-10-21T17:13:54.089Z,5.50
2018-10-21T17:16:27.670Z,5.70
2018-10-21T17:19:01.392Z,6.03
2018-10-21T17:21:34.978Z,6.30
2018-10-21T17:24:08.538Z,7.03
2018-10-21T17:26:42.274Z,8.37
2018-10-21T17:29:15.924Z,8.90
2018-10-21T17:31:49.598Z,8.73
2018-10-21T17:34:23.585Z,9.93
2018-10-21T17:36:57.278Z,11.07
2018-10-21T17:39:30.813Z,10.90
2018-10-21T17:42:04.873Z,10.10
2018-10-21T17:44:38.401Z,11.67
2018-10-21T17:47:11.888Z,19.57
2018-10-21T17:49:45.378Z,12.03
2018-10-21T17:52:19.011Z,11.43
2018-10-21T17:54:52.396Z,12.17
2018-10-21T17:57:26.002Z,13.23
2018-10-21T17:59:59.585Z,14.40
2018-10-21T18:02:33.166Z,13.87
2018-10-21T18:05:08.332Z,16.30
2018-10-21T18:07:42.112Z,14.53
2018-10-21T18:10:15.748Z,13.97
2018-10-21T18:12:49.281Z,14.70
2018-10-21T18:15:22.800Z,14.00
2018-10-21T18:17:56.285Z,13.93
2018-10-21T18:20:29.875Z,14.27
2018-10-21T18:23:03.384Z,15.13
2018-10-21T18:25:36.844Z,23.90
2018-10-21T18:28:10.556Z,19.20
2018-10-21T18:30:44.132Z,24.83
2018-10-21T18:33:17.731Z,15.30
2018-10-21T18:35:51.461Z,16.10
2018-10-21T18:38:25.036Z,17.77
2018-10-21T18:40:58.962Z,17.50
2018-10-21T18:43:32.319Z,18.37
2018-10-21T18:46:05.903Z,17.83
2018-10-21T18:48:39.462Z,17.87
2018-10-21T18:51:13.094Z,19.03
2018-10-21T18:53:46.770Z,18.60
2018-10-21T18:56:20.447Z,19.53
2018-10-21T18:58:54.255Z,19.53
2018-10-21T19:01:27.762Z,23.23
2018-10-21T19:04:01.395Z,20.07
2018-10-21T19:06:35.021Z,21.27
2018-10-21T19:09:09.887Z,19.93
2018-10-21T19:11:43.288Z,20.33
2018-10-21T19:14:16.962Z,20.83
2018-10-21T19:16:50.621Z,20.83
2018-10-21T19:19:24.072Z,22.17
2018-10-21T19:21:57.636Z,22.00
2018-10-21T19:24:31.244Z,21.63
2018-10-21T19:27:04.973Z,20.07
2018-10-21T19:29:38.442Z,21.27
2018-10-21T19:32:11.901Z,22.47
2018-10-21T19:34:45.563Z,21.17
2018-10-21T19:37:19.328Z,22.90
2018-10-21T19:39:52.793Z,22.03
2018-10-21T19:42:26.420Z,21.13
2018-10-21T19:44:59.907Z,21.93
2018-10-21T19:47:33.496Z,21.73
2018-10-21T19:50:08.157Z,20.30
2018-10-21T19:52:42.502Z,21.67
2018-10-21T19:55:16.277Z,23.00
2018-10-21T19:57:49.721Z,22.17
2018-10-21T20:00:23.345Z,22.90
2018-10-21T20:02:56.789Z,23.23
2018-10-21T20:05:30.323Z,23.03
2018-10-21T20:08:03.908Z,23.17
2018-10-21T20:10:37.407Z,22.70
2018-10-21T20:13:11.061Z,22.83
2018-10-21T20:15:44.489Z,22.60
2018-10-21T20:18:18.108Z,24.40
2018-10-21T20:20:51.677Z,23.03
2018-10-21T20:23:25.186Z,23.77
2018-10-21T20:25:58.726Z,21.53
2018-10-21T20:28:32.209Z,20.20
2018-10-21T20:31:05.906Z,20.77
2018-10-21T20:33:39.495Z,22.33
2018-10-21T20:36:13.126Z,20.93
2018-10-21T20:38:46.762Z,23.17
2018-10-21T20:41:20.341Z,22.53
2018-10-21T20:43:53.917Z,22.13
2018-10-21T20:46:27.390Z,21.67
2018-10-21T20:49:00.917Z,20.23
2018-10-21T20:51:34.593Z,20.47
2018-10-21T20:54:08.159Z,22.60
2018-10-21T20:56:41.621Z,22.43
2018-10-21T20:59:15.233Z,19.90
2018-10-21T21:01:48.784Z,20.43
2018-10-21T21:04:22.299Z,19.43
2018-10-21T21:06:55.923Z,19.67
2018-10-21T21:09:29.433Z,18.37
2018-10-21T21:12:03.143Z,17.27
2018-10-21T21:14:36.714Z,18.37
2018-10-21T21:17:10.427Z,19.07
2018-10-21T21:19:44.155Z,18.50
2018-10-21T21:22:17.668Z,19.03
2018-10-21T21:24:51.190Z,19.40
2018-10-21T21:27:24.952Z,18.67
2018-10-21T21:29:58.459Z,18.00
2018-10-21T21:32:32.069Z,18.87
2018-10-21T21:35:06.116Z,17.97
2018-10-21T21:37:39.780Z,17.73
2018-10-21T21:40:13.524Z,17.33
2018-10-21T21:42:47.082Z,16.03
2018-10-21T21:45:20.588Z,15.80
2018-10-21T21:47:54.222Z,17.00
2018-10-21T21:50:27.821Z,17.20
2018-10-21T21:53:01.357Z,17.00
2018-10-21T21:55:34.905Z,17.93
2018-10-21T21:58:08.513Z,17.20
2018-10-21T22:00:42.178Z,19.13
2018-10-21T22:03:15.652Z,18.83
2018-10-21T22:05:49.241Z,20.30
2018-10-21T22:08:22.868Z,21.33
2018-10-21T22:10:56.384Z,23.33
2018-10-21T22:13:29.918Z,25.13
2018-10-21T22:16:03.908Z,24.83
2018-10-21T22:18:37.401Z,25.07
2018-10-21T22:21:11.042Z,26.43
2018-10-21T22:23:44.588Z,26.30
2018-10-21T22:26:18.142Z,24.13
2018-10-21T22:28:51.708Z,26.23
2018-10-21T22:31:25.254Z,24.73
2018-10-21T22:33:58.909Z,24.53
2018-10-21T22:36:32.629Z,22.87
2018-10-21T22:39:06.435Z,20.73
2018-10-21T22:41:39.862Z,19.20
2018-10-21T22:44:13.582Z,18.50
2018-10-21T22:46:47.030Z,19.60
2018-10-21T22:49:20.642Z,18.17
2018-10-21T22:51:54.253Z,15.90
2018-10-21T22:54:27.797Z,15.87
2018-10-21T22:57:01.605Z,15.67
2018-10-21T22:59:35.090Z,13.17
2018-10-21T23:02:08.685Z,14.53
2018-10-21T23:04:42.373Z,12.57
2018-10-21T23:07:15.961Z,11.97
2018-10-21T23:09:49.521Z,11.17
2018-10-21T23:12:23.109Z,9.53
2018-10-21T23:14:56.742Z,8.87
2018-10-21T23:17:30.345Z,8.87
2018-10-21T23:20:04.801Z,8.03
2018-10-21T23:22:38.429Z,8.00
2018-10-21T23:25:12.061Z,7.13
2018-10-21T23:27:45.632Z,7.53
2018-10-21T23:30:19.195Z,7.30
2018-10-21T23:32:52.773Z,6.77
2018-10-21T23:35:26.511Z,6.80
2018-10-21T23:38:00.066Z,6.70
2018-10-21T23:40:33.657Z,7.27
2018-10-21T23:43:07.265Z,6.77
2018-10-21T23:45:40.886Z,6.57
